首页
METAR-TAF:

METAR-TAF

机场 :

Goldsboro / Seymour Johnson, 北卡罗来纳州, 美国

纬度: 35-20N, 经度: 077-58W, 海拔: 33米

当前天气观测

该预报发布于34分钟前的18:59 UTC
风速13节,风向西南
温度 31°C
湿度 52%
气压 1022 hPa
能見度: 16.1公里
天空无云

METAR: KGSB 231859Z AUTO 23013KT 10SM CLR 31/20 A3017 RMK AO2 WSHFT 53 SLP219 $

时间: 15:33 (19:33 UTC)

预报

该预报发布于7小时和33分钟前的12:00 UTC
预报有效从23日的 12点(UTC)到 24日的 18点(UTC)
风速3节,风向
能见度10公里或以上
少量云层高于8000英尺
少量云层高于25000英尺
成为
从 23日的 13点(UTC)到 23日的 14点(UTC)
风速10节,风向西南,有时为15节阵风
能见度10公里或以上
多云层高于8000英尺
多云层高于25000英尺
成为
从 23日的 23点(UTC)到 23日的 24点(UTC)
风速6节,风向西转西南
能见度10公里或以上
散云层高于8000英尺
散云层高于25000英尺

TAF: KGSB 231200Z 2312/2418 17003KT 9999 FEW080 FEW250 QNH3020INS BECMG 2313/2314 23010G15KT 9999 BKN080 BKN250 QNH3007INS BECMG 2323/2324 24006KT 9999 SCT080 SCT250 QNH3004INS TX30/2320Z TN20/2312Z

超过4000个机场的气象观测和天气预报(METAR&TAF报告)。

可查询的气象台以黄色和红色小点在地图上表示。

将鼠标移到小点上方,可查看气象台名称。

然后点击查看天气观测和预报。

如需切换地图:点击带黑十字的绿色按钮放大地图;点击带横线的绿色按钮缩小地图;或者点击绿色箭头查看邻近地区的地图。


METAR-TAF: